Time;durP1;ratioP1;P1;durP2;ratioP2;P2;SDS_P1;SDS_P2;PMS_P1;PMS_P2;Temp;Humidity;BMP_temperature;BMP_pressure;BME280_temperature;BME280_humidity;BME280_pressure;Samples;Min_cycle;Max_cycle;Signal;HPM_P1;HPM_P2
2020/12/25 00:00:11;;;;;;;0.20;0.20;;;3.40;99.90;;;;;;5031683;28;20017;-69
2020/12/25 00:02:37;;;;;;;0.20;0.20;;;3.40;99.90;;;;;;5030940;28;20033;-70
2020/12/25 00:05:03;;;;;;;0.30;0.30;;;3.30;99.90;;;;;;5031517;28;20028;-69
2020/12/25 00:07:28;;;;;;;0.20;0.20;;;3.30;99.90;;;;;;5031753;28;20040;-70
2020/12/25 00:09:54;;;;;;;0.20;0.20;;;3.30;99.90;;;;;;5031581;28;20021;-70
2020/12/25 00:12:20;;;;;;;0.10;0.10;;;3.30;99.90;;;;;;5031691;28;20025;-68
2020/12/25 00:14:45;;;;;;;0.20;0.20;;;3.40;99.90;;;;;;5031000;28;20026;-69
2020/12/25 00:17:11;;;;;;;1.10;0.20;;;3.40;99.90;;;;;;5031002;28;20112;-68
2020/12/25 00:19:36;;;;;;;0.10;0.10;;;3.40;99.90;;;;;;5031511;28;20036;-68
2020/12/25 00:22:02;;;;;;;0.20;0.20;;;3.30;99.90;;;;;;5031682;28;20029;-69
2020/12/25 00:24:28;;;;;;;0.20;0.20;;;3.40;99.90;;;;;;5030830;28;20032;-69
2020/12/25 00:26:53;;;;;;;0.20;0.20;;;3.40;99.90;;;;;;5031587;28;20022;-68
2020/12/25 00:29:19;;;;;;;0.25;0.20;;;3.30;99.90;;;;;;5031366;28;20064;-68
2020/12/25 00:31:45;;;;;;;0.52;0.30;;;3.30;99.90;;;;;;5031260;28;20029;-70
2020/12/25 00:34:11;;;;;;;0.30;0.30;;;3.20;99.90;;;;;;5030802;28;20032;-69
2020/12/25 00:36:42;;;;;;;0.20;0.20;;;3.10;99.90;;;;;;5031157;28;20022;-70
2020/12/25 00:39:11;;;;;;;1.70;0.40;;;3.20;99.90;;;;;;5031440;28;20219;-70
2020/12/25 00:41:48;;;;;;;0.40;0.40;;;3.20;99.90;;;;;;5031427;28;20029;-69
2020/12/25 00:44:14;;;;;;;0.40;0.40;;;3.20;99.90;;;;;;5030762;28;20022;-70
2020/12/25 00:46:40;;;;;;;0.30;0.30;;;3.10;99.90;;;;;;5030570;28;20376;-69
2020/12/25 00:49:07;;;;;;;0.45;0.45;;;3.20;99.90;;;;;;5031309;28;20140;-69
2020/12/25 00:51:32;;;;;;;0.30;0.30;;;3.20;99.90;;;;;;5031345;28;20109;-69
2020/12/25 00:53:58;;;;;;;0.50;0.50;;;3.20;99.90;;;;;;5030635;28;20168;-70
2020/12/25 00:56:24;;;;;;;0.60;0.60;;;3.10;99.90;;;;;;5031209;28;20472;-70
2020/12/25 00:58:50;;;;;;;0.43;0.43;;;3.30;99.90;;;;;;5030226;28;20017;-70
2020/12/25 01:01:16;;;;;;;0.60;0.60;;;3.20;99.90;;;;;;5029233;28;20018;-70
2020/12/25 01:03:43;;;;;;;0.50;0.50;;;3.20;99.90;;;;;;5010546;28;20476;-70
2020/12/25 01:06:17;;;;;;;0.75;0.60;;;3.30;99.90;;;;;;5012324;28;20022;-69
2020/12/25 01:08:44;;;;;;;0.40;0.40;;;3.30;99.90;;;;;;5014947;28;20026;-70
2020/12/25 01:11:10;;;;;;;0.70;0.70;;;3.30;99.90;;;;;;5014917;28;20542;-69
2020/12/25 01:13:37;;;;;;;0.60;0.60;;;3.40;99.90;;;;;;5014188;28;20488;-71
2020/12/25 01:16:04;;;;;;;0.60;0.60;;;3.40;99.90;;;;;;5014661;28;20030;-70
2020/12/25 01:18:30;;;;;;;0.93;0.93;;;3.40;99.90;;;;;;5014558;28;20022;-70
2020/12/25 01:20:55;;;;;;;2.15;1.00;;;3.40;99.90;;;;;;5014895;28;20069;-69
2020/12/25 01:23:21;;;;;;;0.90;0.90;;;3.40;99.90;;;;;;5014003;28;20026;-69
2020/12/25 01:25:47;;;;;;;1.95;0.90;;;3.50;99.90;;;;;;5012855;28;20049;-70
2020/12/25 01:28:12;;;;;;;0.77;0.77;;;3.40;99.90;;;;;;5014726;28;20029;-69
2020/12/25 01:30:38;;;;;;;0.90;0.90;;;3.40;99.90;;;;;;5017583;28;20030;-69
2020/12/25 01:33:03;;;;;;;1.00;1.00;;;3.40;99.90;;;;;;5033931;28;20026;-69
2020/12/25 01:35:29;;;;;;;0.95;0.95;;;3.50;99.90;;;;;;5034224;28;20522;-69
2020/12/25 01:37:55;;;;;;;0.93;0.93;;;3.50;99.90;;;;;;5034276;28;20065;-70
2020/12/25 01:40:20;;;;;;;0.93;0.93;;;3.40;99.90;;;;;;5034285;28;20025;-68
2020/12/25 01:42:46;;;;;;;1.00;1.00;;;3.30;99.90;;;;;;5033728;28;20025;-69
2020/12/25 01:45:12;;;;;;;0.85;0.85;;;3.30;99.90;;;;;;5033919;28;20025;-70
2020/12/25 01:47:38;;;;;;;0.90;0.90;;;3.40;99.90;;;;;;5033645;28;20036;-70
2020/12/25 01:50:04;;;;;;;1.90;1.38;;;3.40;99.90;;;;;;5034186;28;20151;-68
2020/12/25 01:52:30;;;;;;;0.70;0.70;;;3.40;99.90;;;;;;5033984;28;20056;-69
2020/12/25 01:54:56;;;;;;;0.70;0.70;;;3.40;99.90;;;;;;5033333;28;20030;-69
2020/12/25 01:57:23;;;;;;;1.42;1.35;;;3.40;99.90;;;;;;5032923;28;20112;-70
2020/12/25 01:59:51;;;;;;;1.08;1.08;;;3.40;99.90;;;;;;5034893;28;20029;-70
2020/12/25 02:02:17;;;;;;;1.25;1.17;;;3.40;99.90;;;;;;5034016;28;20053;-70
2020/12/25 02:04:42;;;;;;;1.23;1.00;;;3.40;99.90;;;;;;5033202;28;20060;-69
2020/12/25 02:07:08;;;;;;;1.65;1.30;;;3.30;99.90;;;;;;5033706;28;20025;-69
2020/12/25 02:09:34;;;;;;;1.30;1.20;;;3.30;99.90;;;;;;5033676;28;20029;-69
2020/12/25 02:11:59;;;;;;;1.15;1.05;;;3.40;99.90;;;;;;5033660;28;20037;-71
2020/12/25 02:14:26;;;;;;;1.42;1.33;;;3.40;99.90;;;;;;5032834;28;20040;-69
2020/12/25 02:16:51;;;;;;;1.25;1.15;;;3.30;99.90;;;;;;5033512;28;20030;-69
2020/12/25 02:19:17;;;;;;;1.77;1.40;;;3.30;99.90;;;;;;5032986;28;20610;-70
2020/12/25 02:21:43;;;;;;;1.92;1.70;;;3.40;99.90;;;;;;5033562;28;20026;-70
2020/12/25 02:24:08;;;;;;;1.70;1.60;;;3.40;99.90;;;;;;5032801;28;20400;-69
2020/12/25 02:26:35;;;;;;;1.58;1.48;;;3.40;99.90;;;;;;5033306;28;20029;-71
2020/12/25 02:29:01;;;;;;;2.28;2.17;;;3.40;99.90;;;;;;5033357;28;20163;-69
2020/12/25 02:31:27;;;;;;;1.95;1.70;;;3.50;99.90;;;;;;5032012;28;20124;-69
2020/12/25 02:33:52;;;;;;;2.20;2.05;;;3.50;99.90;;;;;;5034160;28;20022;-69
2020/12/25 02:36:18;;;;;;;2.33;1.70;;;3.40;99.90;;;;;;5035221;28;20029;-69
2020/12/25 02:38:43;;;;;;;2.10;1.95;;;3.50;99.90;;;;;;5033254;28;20044;-69
2020/12/25 02:41:09;;;;;;;2.40;2.20;;;3.50;99.90;;;;;;5033301;28;20025;-70
2020/12/25 02:43:35;;;;;;;2.28;1.85;;;3.60;99.90;;;;;;5032531;28;20018;-69
2020/12/25 02:46:00;;;;;;;2.50;2.30;;;3.60;99.90;;;;;;5035442;28;20025;-69
2020/12/25 02:48:26;;;;;;;2.35;2.15;;;3.70;99.90;;;;;;5038714;28;20045;-70
2020/12/25 02:50:52;;;;;;;1.67;1.58;;;3.60;99.90;;;;;;5037183;28;20066;-69
2020/12/25 02:53:17;;;;;;;2.85;2.15;;;3.60;99.90;;;;;;5037412;28;20037;-69
2020/12/25 02:55:43;;;;;;;2.15;2.00;;;3.70;99.90;;;;;;5035357;28;20105;-68
2020/12/25 02:58:08;;;;;;;1.98;1.88;;;3.70;99.90;;;;;;5034402;28;20033;-69
2020/12/25 03:00:34;;;;;;;4.65;1.73;;;3.70;99.90;;;;;;5035414;28;20029;-69
2020/12/25 03:03:00;;;;;;;2.00;1.80;;;3.70;99.90;;;;;;5017883;28;20025;-69
2020/12/25 03:05:25;;;;;;;1.88;1.77;;;3.70;99.90;;;;;;5015931;28;20034;-69
2020/12/25 03:07:51;;;;;;;2.45;1.92;;;3.70;99.90;;;;;;5015685;28;20022;-72
2020/12/25 03:10:17;;;;;;;2.58;2.38;;;3.70;99.90;;;;;;5014396;28;20468;-69
2020/12/25 03:12:42;;;;;;;1.85;1.75;;;3.70;99.90;;;;;;5014142;28;20026;-68
2020/12/25 03:15:08;;;;;;;1.60;1.50;;;3.70;99.90;;;;;;5013490;28;20037;-69
2020/12/25 03:17:34;;;;;;;1.92;1.83;;;3.70;99.90;;;;;;5013268;28;20029;-70
2020/12/25 03:20:00;;;;;;;2.65;1.83;;;3.70;99.90;;;;;;5015489;28;20499;-68
2020/12/25 03:22:25;;;;;;;2.03;1.92;;;3.70;99.90;;;;;;5014785;28;20030;-69
2020/12/25 03:24:51;;;;;;;1.90;1.70;;;3.70;99.90;;;;;;5012327;28;20026;-68
2020/12/25 03:27:17;;;;;;;2.33;2.13;;;3.60;99.90;;;;;;5014356;28;20022;-67
2020/12/25 03:29:42;;;;;;;1.85;1.75;;;3.60;99.90;;;;;;5014670;28;20496;-69
2020/12/25 03:32:08;;;;;;;2.17;1.95;;;3.60;99.90;;;;;;5028466;28;20044;-71
2020/12/25 03:34:33;;;;;;;3.55;2.22;;;3.60;99.90;;;;;;5032778;28;20033;-68
2020/12/25 03:36:59;;;;;;;2.63;2.42;;;3.60;99.90;;;;;;5033125;28;20074;-69
2020/12/25 03:39:25;;;;;;;1.80;1.67;;;3.60;99.90;;;;;;5032387;28;20029;-68
2020/12/25 03:41:52;;;;;;;2.22;1.95;;;3.60;99.90;;;;;;5032128;28;20025;-70
2020/12/25 03:44:18;;;;;;;2.28;2.08;;;3.60;99.90;;;;;;5031647;28;20032;-70
2020/12/25 03:46:44;;;;;;;2.17;2.08;;;3.60;99.90;;;;;;5031728;28;20476;-69
2020/12/25 03:49:10;;;;;;;2.60;2.03;;;3.70;99.90;;;;;;5030532;28;20022;-69
2020/12/25 03:51:36;;;;;;;2.55;2.30;;;3.70;99.90;;;;;;5031946;28;20083;-69
2020/12/25 03:54:02;;;;;;;3.00;2.30;;;3.60;99.90;;;;;;5031155;28;20454;-69
2020/12/25 03:56:28;;;;;;;2.30;1.85;;;3.60;99.90;;;;;;5031451;28;20025;-69
2020/12/25 03:58:54;;;;;;;1.85;1.75;;;3.60;99.90;;;;;;5031890;28;20432;-70
2020/12/25 04:01:20;;;;;;;2.55;2.35;;;3.60;99.90;;;;;;5031936;28;20373;-69
2020/12/25 04:03:45;;;;;;;3.28;2.33;;;3.60;99.90;;;;;;5031074;28;20030;-69
2020/12/25 04:06:11;;;;;;;2.17;2.00;;;3.70;99.90;;;;;;5031785;28;20396;-70
2020/12/25 04:08:37;;;;;;;4.00;1.83;;;3.70;99.90;;;;;;5040330;28;20083;-71
2020/12/25 04:11:03;;;;;;;1.75;1.50;;;3.70;99.90;;;;;;5040071;28;20108;-68
2020/12/25 04:13:29;;;;;;;1.48;1.38;;;3.70;99.90;;;;;;5030899;28;20091;-70
2020/12/25 04:16:03;;;;;;;2.45;0.98;;;3.70;99.90;;;;;;5031235;28;20543;-69
2020/12/25 04:18:29;;;;;;;1.10;1.10;;;3.60;99.90;;;;;;5031208;28;20495;-70
2020/12/25 04:20:59;;;;;;;1.05;1.05;;;3.50;99.90;;;;;;5031555;28;20468;-69
2020/12/25 04:23:25;;;;;;;1.00;0.90;;;3.50;99.90;;;;;;5030892;28;20025;-69
2020/12/25 04:25:52;;;;;;;0.70;0.70;;;3.50;99.90;;;;;;5031348;28;20148;-70
2020/12/25 04:28:17;;;;;;;0.70;0.70;;;3.40;99.90;;;;;;5031524;28;20044;-69
2020/12/25 04:30:43;;;;;;;0.90;0.90;;;3.40;99.90;;;;;;5031344;28;20033;-70
2020/12/25 04:33:09;;;;;;;0.90;0.90;;;3.40;99.90;;;;;;5030425;28;20061;-69
2020/12/25 04:35:34;;;;;;;1.25;0.80;;;3.30;99.90;;;;;;5031395;28;20056;-69
2020/12/25 04:38:00;;;;;;;1.88;0.77;;;3.20;99.90;;;;;;5031208;28;20477;-70
2020/12/25 04:40:26;;;;;;;0.73;0.73;;;3.20;99.90;;;;;;5030189;28;20121;-70
2020/12/25 04:42:54;;;;;;;1.02;0.85;;;3.10;99.90;;;;;;5034621;28;20025;-70
2020/12/25 04:45:21;;;;;;;1.48;0.82;;;3.00;99.90;;;;;;5035162;28;20120;-69
2020/12/25 04:47:47;;;;;;;0.60;0.57;;;3.10;99.90;;;;;;5034834;28;20094;-69
2020/12/25 04:50:13;;;;;;;0.80;0.80;;;3.10;99.90;;;;;;5034034;28;20033;-69
2020/12/25 04:52:39;;;;;;;0.65;0.65;;;3.00;99.90;;;;;;5034460;28;20082;-71
2020/12/25 04:55:05;;;;;;;0.75;0.75;;;2.90;99.90;;;;;;5034932;28;20392;-70
2020/12/25 04:57:31;;;;;;;0.90;0.60;;;2.80;99.90;;;;;;5034875;28;20029;-71
2020/12/25 04:59:57;;;;;;;1.20;0.80;;;2.80;99.90;;;;;;5035039;28;20101;-69
2020/12/25 05:02:23;;;;;;;0.60;0.60;;;2.80;99.90;;;;;;5035700;28;20021;-70
2020/12/25 05:04:48;;;;;;;0.70;0.68;;;2.80;99.90;;;;;;5034023;28;20396;-69
2020/12/25 05:07:14;;;;;;;0.80;0.80;;;2.90;99.90;;;;;;5034783;28;20079;-69
2020/12/25 05:09:40;;;;;;;4.47;0.88;;;2.70;99.90;;;;;;5034871;28;20052;-70
2020/12/25 05:12:11;;;;;;;0.80;0.80;;;2.70;99.90;;;;;;5035002;28;20649;-70
2020/12/25 05:14:42;;;;;;;0.60;0.60;;;2.80;99.90;;;;;;5034184;28;20034;-70
2020/12/25 05:17:11;;;;;;;1.13;0.80;;;2.90;99.90;;;;;;5034366;28;20033;-69
2020/12/25 05:19:40;;;;;;;0.52;0.52;;;2.80;99.90;;;;;;5034417;28;20680;-70
2020/12/25 05:22:06;;;;;;;1.00;0.70;;;2.80;99.90;;;;;;5034655;28;20444;-69
2020/12/25 05:24:37;;;;;;;0.47;0.47;;;2.90;99.90;;;;;;5034016;28;20018;-69
2020/12/25 05:27:10;;;;;;;0.50;0.50;;;2.90;99.90;;;;;;5034497;28;20026;-70
2020/12/25 05:29:38;;;;;;;0.55;0.55;;;2.90;99.90;;;;;;5034582;28;20025;-69
2020/12/25 05:32:05;;;;;;;0.70;0.70;;;3.00;99.90;;;;;;5034447;28;20079;-70
2020/12/25 05:34:33;;;;;;;0.60;0.60;;;3.00;99.90;;;;;;5033666;28;20035;-69
2020/12/25 05:37:01;;;;;;;0.60;0.60;;;3.00;99.90;;;;;;5034094;28;20053;-69
2020/12/25 05:39:34;;;;;;;0.43;0.43;;;3.00;99.90;;;;;;5034363;28;20036;-69
2020/12/25 05:42:03;;;;;;;1.58;0.60;;;3.00;99.90;;;;;;5040023;28;20026;-70
2020/12/25 05:44:34;;;;;;;1.17;0.50;;;3.10;99.90;;;;;;5043353;28;20145;-68
2020/12/25 05:47:00;;;;;;;0.40;0.40;;;3.00;99.90;;;;;;5041091;23;20480;-76
2020/12/25 05:49:27;;;;;;;0.60;0.60;;;3.10;99.90;;;;;;5051153;28;20040;-77
2020/12/25 05:51:53;;;;;;;0.50;0.40;;;3.10;99.90;;;;;;5057787;28;20543;-77
2020/12/25 05:54:25;;;;;;;0.50;0.50;;;3.10;99.90;;;;;;5057224;28;20051;-77
2020/12/25 05:56:56;;;;;;;0.52;0.40;;;3.10;99.90;;;;;;5038220;28;20120;-77
2020/12/25 05:59:31;;;;;;;0.80;0.53;;;3.10;99.90;;;;;;5040636;28;20563;-76
2020/12/25 06:02:06;;;;;;;3.25;0.68;;;3.00;99.90;;;;;;5039769;28;20077;-78
2020/12/25 06:04:33;;;;;;;0.70;0.70;;;3.00;99.90;;;;;;5040109;28;20109;-77
2020/12/25 06:07:00;;;;;;;0.52;0.52;;;2.90;99.90;;;;;;5038228;28;20024;-77
2020/12/25 06:09:29;;;;;;;0.52;0.52;;;2.90;99.90;;;;;;5034058;28;20120;-77
2020/12/25 06:11:55;;;;;;;0.60;0.60;;;2.90;99.90;;;;;;5032842;28;20025;-77
2020/12/25 06:14:21;;;;;;;1.50;0.60;;;2.90;99.90;;;;;;5033662;28;20534;-77
2020/12/25 06:16:59;;;;;;;0.68;0.68;;;2.80;99.90;;;;;;5035928;28;20048;-79
2020/12/25 06:19:45;;;;;;;0.60;0.60;;;2.60;99.90;;;;;;5041670;28;20026;-78
2020/12/25 06:22:21;;;;;;;4.72;1.30;;;2.60;99.90;;;;;;5035245;28;20022;-77
2020/12/25 06:24:50;;;;;;;2.28;0.90;;;2.50;99.90;;;;;;5038075;28;20014;-77
2020/12/25 06:27:16;;;;;;;3.03;0.90;;;2.50;99.90;;;;;;5037331;28;20108;-78
2020/12/25 06:29:43;;;;;;;0.77;0.77;;;2.50;99.90;;;;;;5036875;28;20056;-78
2020/12/25 06:32:10;;;;;;;1.23;0.95;;;3.00;99.90;;;;;;5037465;28;20409;-77
2020/12/25 06:34:47;;;;;;;2.38;1.10;;;2.60;99.90;;;;;;5035217;28;20032;-77
2020/12/25 06:37:14;;;;;;;1.63;0.98;;;2.50;99.90;;;;;;5037473;28;20033;-77
2020/12/25 06:39:47;;;;;;;0.90;0.90;;;2.60;99.90;;;;;;5037586;28;20128;-77
2020/12/25 06:42:13;;;;;;;0.90;0.90;;;2.50;99.90;;;;;;5037988;28;20037;-77
2020/12/25 06:44:47;;;;;;;1.30;1.20;;;2.40;99.90;;;;;;5048413;28;20049;-76
2020/12/25 06:47:35;;;;;;;1.30;1.20;;;2.40;99.90;;;;;;5049568;28;20068;-76
2020/12/25 06:50:09;;;;;;;1.17;1.15;;;2.50;99.90;;;;;;5045911;28;20026;-76
2020/12/25 06:52:57;;;;;;;1.30;1.20;;;2.50;99.90;;;;;;5047896;28;20064;-77
2020/12/25 06:55:23;;;;;;;2.70;1.33;;;2.50;99.90;;;;;;5034869;28;20469;-77
2020/12/25 06:57:55;;;;;;;1.50;1.40;;;2.50;99.90;;;;;;5035163;28;20057;-75
2020/12/25 07:00:22;;;;;;;1.58;1.48;;;2.50;99.90;;;;;;5032190;28;20021;-77
2020/12/25 07:02:48;;;;;;;2.95;1.38;;;2.50;99.90;;;;;;5036185;28;20025;-78
2020/12/25 07:05:15;;;;;;;2.35;2.13;;;2.60;99.90;;;;;;5034807;28;20026;-76
2020/12/25 07:07:41;;;;;;;4.57;3.35;;;2.50;99.90;;;;;;5033000;28;20370;-76
2020/12/25 07:10:12;;;;;;;3.08;2.65;;;2.70;99.90;;;;;;5032803;28;20036;-75
2020/12/25 07:12:38;;;;;;;2.58;2.33;;;2.70;99.90;;;;;;5033892;28;20022;-75
2020/12/25 07:15:06;;;;;;;3.20;2.50;;;2.70;99.90;;;;;;5030714;28;20025;-73
2020/12/25 07:17:32;;;;;;;2.33;2.05;;;2.70;99.90;;;;;;5027897;28;20409;-77
2020/12/25 07:19:58;;;;;;;2.60;2.40;;;2.70;99.90;;;;;;5022374;28;20050;-76
2020/12/25 07:22:24;;;;;;;2.65;2.17;;;2.70;99.90;;;;;;5021437;28;20060;-77
2020/12/25 07:24:50;;;;;;;2.90;2.70;;;2.80;99.90;;;;;;5021580;28;20033;-75
2020/12/25 07:27:16;;;;;;;2.50;2.30;;;2.90;99.90;;;;;;5043189;23;20087;-76
2020/12/25 07:29:43;;;;;;;3.60;2.40;;;2.60;99.90;;;;;;5050533;28;20031;-74
2020/12/25 07:32:11;;;;;;;2.67;2.47;;;2.50;99.90;;;;;;5056653;28;20502;-74
2020/12/25 07:34:37;;;;;;;2.50;2.30;;;2.70;99.90;;;;;;5070117;28;20059;-74
2020/12/25 07:37:03;;;;;;;2.88;2.67;;;2.70;99.90;;;;;;5070814;28;20048;-74
2020/12/25 07:39:29;;;;;;;2.60;2.40;;;2.70;99.90;;;;;;5072418;28;20075;-75
2020/12/25 07:41:55;;;;;;;3.35;3.03;;;2.70;99.90;;;;;;5060025;28;20036;-75
2020/12/25 07:44:22;;;;;;;3.95;2.92;;;2.70;99.90;;;;;;5073102;28;20028;-75
2020/12/25 07:46:48;;;;;;;2.92;2.72;;;2.60;99.90;;;;;;5073378;28;20020;-75
2020/12/25 07:49:14;;;;;;;3.70;2.60;;;2.60;99.90;;;;;;5073086;28;20024;-74
2020/12/25 07:51:42;;;;;;;3.28;2.97;;;2.70;99.90;;;;;;5070606;28;20484;-74
2020/12/25 07:54:08;;;;;;;2.60;2.40;;;2.70;99.90;;;;;;5070435;28;20020;-74
2020/12/25 07:56:35;;;;;;;3.15;2.78;;;2.60;99.90;;;;;;5070747;28;20452;-74
2020/12/25 07:59:03;;;;;;;3.22;2.92;;;2.60;99.90;;;;;;5070864;28;20111;-75
2020/12/25 08:01:31;;;;;;;2.75;2.55;;;2.60;99.90;;;;;;5071359;28;20021;-75
2020/12/25 08:03:58;;;;;;;2.92;2.70;;;2.50;99.90;;;;;;5052782;28;20506;-74
2020/12/25 08:06:26;;;;;;;5.35;2.70;;;2.60;99.90;;;;;;5070395;28;20029;-74
2020/12/25 08:09:05;;;;;;;3.83;3.35;;;2.70;99.90;;;;;;5057558;28;20103;-75
2020/12/25 08:11:31;;;;;;;6.00;3.97;;;2.70;99.90;;;;;;5051428;28;20484;-76
2020/12/25 08:14:02;;;;;;;6.22;4.97;;;3.20;99.90;;;;;;5069883;28;20025;-76
2020/12/25 08:16:30;;;;;;;4.63;4.20;;;3.20;99.90;;;;;;5074025;28;20075;-77
2020/12/25 08:18:56;;;;;;;5.90;3.90;;;4.30;99.90;;;;;;5072859;28;20082;-77
2020/12/25 08:21:29;;;;;;;4.10;3.70;;;4.30;99.90;;;;;;5059353;28;20024;-77
2020/12/25 08:23:54;;;;;;;3.08;2.83;;;4.40;99.90;;;;;;5076843;28;20559;-74
2020/12/25 08:26:32;;;;;;;8.68;4.45;;;4.20;99.90;;;;;;5060374;28;20105;-74
2020/12/25 08:28:58;;;;;;;4.80;3.88;;;3.90;99.90;;;;;;5059373;28;20082;-74
2020/12/25 08:31:24;;;;;;;3.13;2.92;;;3.70;99.90;;;;;;5060422;28;20025;-74
2020/12/25 08:33:54;;;;;;;3.83;3.45;;;3.40;99.90;;;;;;5058883;28;20485;-73
2020/12/25 08:36:20;;;;;;;3.17;2.90;;;3.50;99.90;;;;;;5058692;28;20143;-74
2020/12/25 08:38:47;;;;;;;4.32;3.38;;;3.50;99.90;;;;;;5040993;28;20029;-73
2020/12/25 08:41:13;;;;;;;4.32;3.88;;;3.40;99.90;;;;;;5056988;28;20415;-73
2020/12/25 08:43:39;;;;;;;4.00;3.65;;;3.50;99.90;;;;;;5057073;28;20029;-74
2020/12/25 08:46:05;;;;;;;3.92;3.58;;;3.50;99.90;;;;;;5057832;28;20524;-74
2020/12/25 08:48:47;;;;;;;4.35;3.58;;;3.50;99.90;;;;;;5040389;28;20029;-75
2020/12/25 08:51:14;;;;;;;9.20;8.00;;;3.50;99.90;;;;;;5040568;28;20397;-75
2020/12/25 08:53:52;;;;;;;6.75;5.60;;;3.50;99.90;;;;;;5057860;28;20550;-72
2020/12/25 08:56:22;;;;;;;4.18;3.70;;;3.50;99.90;;;;;;5058717;28;20555;-73
2020/12/25 08:59:07;;;;;;;3.15;2.85;;;3.40;99.90;;;;;;5044712;28;20051;-73
2020/12/25 09:01:41;;;;;;;3.00;2.80;;;3.50;99.90;;;;;;5040888;28;20025;-76
2020/12/25 09:04:13;;;;;;;2.97;2.70;;;3.40;99.90;;;;;;5040499;28;20021;-73
2020/12/25 09:06:39;;;;;;;3.22;2.92;;;3.50;99.90;;;;;;5059264;28;20059;-74
2020/12/25 09:09:05;;;;;;;3.70;3.40;;;3.50;99.90;;;;;;5059121;28;20547;-74
2020/12/25 09:11:31;;;;;;;4.00;3.60;;;3.60;99.90;;;;;;5071942;28;20032;-74
2020/12/25 09:13:56;;;;;;;4.43;4.03;;;3.60;99.90;;;;;;5077131;28;20468;-74
2020/12/25 09:16:22;;;;;;;3.88;3.58;;;3.60;99.90;;;;;;5077187;28;20516;-75
2020/12/25 09:18:48;;;;;;;3.88;3.47;;;3.50;99.90;;;;;;5046463;28;20021;-76
2020/12/25 09:21:15;;;;;;;4.85;4.35;;;3.50;99.90;;;;;;5059276;28;20021;-75
2020/12/25 09:23:41;;;;;;;4.90;4.40;;;3.60;99.90;;;;;;5059270;28;20025;-74
2020/12/25 09:26:09;;;;;;;13.07;11.77;;;3.70;99.90;;;;;;5059720;28;20017;-75
2020/12/25 09:28:35;;;;;;;5.78;5.22;;;3.70;99.90;;;;;;5039579;28;20524;-74
2020/12/25 09:31:03;;;;;;;5.57;5.07;;;3.50;99.90;;;;;;5068656;28;20076;-77
2020/12/25 09:33:29;;;;;;;5.05;4.55;;;3.60;99.90;;;;;;5078670;28;20011;-76
2020/12/25 09:35:55;;;;;;;5.88;5.18;;;3.60;99.90;;;;;;5066153;28;20460;-75
2020/12/25 09:38:20;;;;;;;7.50;5.55;;;3.90;99.90;;;;;;5063909;28;20040;-72
2020/12/25 09:40:51;;;;;;;12.05;8.55;;;3.90;99.90;;;;;;5038818;28;20052;-74
2020/12/25 09:43:17;;;;;;;12.73;8.25;;;4.00;99.90;;;;;;5057103;28;20028;-75
2020/12/25 09:45:43;;;;;;;11.68;7.75;;;3.90;99.90;;;;;;5056276;28;20029;-75
2020/12/25 09:48:09;;;;;;;8.60;7.20;;;3.90;99.90;;;;;;5055830;28;20063;-75
2020/12/25 09:50:35;;;;;;;8.52;6.75;;;4.00;99.90;;;;;;5056216;28;20025;-75
2020/12/25 09:53:01;;;;;;;7.85;6.82;;;4.00;99.90;;;;;;5055729;28;20031;-73
2020/12/25 09:55:27;;;;;;;8.57;7.10;;;4.20;99.90;;;;;;5056546;28;20103;-76
2020/12/25 09:57:53;;;;;;;8.18;7.30;;;4.40;99.90;;;;;;5057713;28;20406;-76
2020/12/25 10:00:19;;;;;;;9.43;7.97;;;4.40;99.90;;;;;;5038154;28;20025;-76
2020/12/25 10:02:44;;;;;;;9.90;7.85;;;4.40;99.90;;;;;;5055688;28;20021;-78
2020/12/25 10:05:12;;;;;;;11.23;7.68;;;4.40;99.90;;;;;;5045265;28;20016;-75
2020/12/25 10:07:38;;;;;;;12.77;8.25;;;4.30;99.90;;;;;;5057776;28;20031;-77
2020/12/25 10:10:06;;;;;;;9.82;8.13;;;4.20;99.90;;;;;;5076116;28;20020;-77
2020/12/25 10:12:31;;;;;;;10.27;8.18;;;4.20;99.90;;;;;;5085516;28;20158;-73
2020/12/25 10:14:57;;;;;;;11.90;9.27;;;4.20;99.90;;;;;;5071568;28;20032;-75
2020/12/25 10:17:23;;;;;;;12.38;9.15;;;4.30;99.90;;;;;;5083325;28;20045;-73
2020/12/25 10:19:48;;;;;;;11.55;9.48;;;4.10;99.90;;;;;;5060868;28;20044;-76
2020/12/25 10:22:14;;;;;;;12.68;9.50;;;4.10;99.90;;;;;;5059836;28;20039;-75
2020/12/25 10:24:40;;;;;;;13.80;9.57;;;4.10;99.90;;;;;;5055945;28;20017;-76
2020/12/25 10:27:05;;;;;;;10.65;8.30;;;4.10;99.90;;;;;;5053798;28;20037;-75
2020/12/25 10:29:31;;;;;;;8.77;7.20;;;4.10;99.90;;;;;;5053811;28;20056;-76
2020/12/25 10:31:57;;;;;;;11.15;8.63;;;3.90;99.90;;;;;;5054565;28;20052;-77
2020/12/25 10:34:23;;;;;;;13.15;8.80;;;4.00;99.90;;;;;;5054338;28;20032;-77
2020/12/25 10:36:49;;;;;;;15.32;10.65;;;4.10;99.90;;;;;;5058441;28;20037;-77
2020/12/25 10:39:15;;;;;;;22.25;12.98;;;4.20;99.90;;;;;;5037791;28;20029;-77
2020/12/25 10:41:41;;;;;;;10.45;8.73;;;4.30;99.90;;;;;;5040486;28;20020;-77
2020/12/25 10:44:08;;;;;;;14.82;9.73;;;4.40;99.90;;;;;;5065466;28;20025;-77
2020/12/25 10:46:34;;;;;;;14.88;10.48;;;4.50;99.90;;;;;;5067596;28;20025;-75
2020/12/25 10:49:00;;;;;;;14.50;10.57;;;4.60;99.90;;;;;;5070410;28;20039;-74
2020/12/25 10:51:26;;;;;;;15.25;10.95;;;4.60;99.90;;;;;;5062201;28;20017;-76
2020/12/25 10:53:51;;;;;;;11.73;8.55;;;4.70;99.90;;;;;;5063957;28;20292;-79
2020/12/25 10:56:28;;;;;;;10.40;8.82;;;4.60;99.90;;;;;;5066666;28;20048;-77
2020/12/25 10:58:55;;;;;;;11.38;8.85;;;4.40;99.90;;;;;;5057232;28;20031;-76
2020/12/25 11:01:25;;;;;;;14.88;11.25;;;4.40;99.90;;;;;;5053182;28;20017;-77
2020/12/25 11:03:52;;;;;;;17.25;13.05;;;4.30;99.90;;;;;;5053690;28;20054;-79
2020/12/25 11:06:19;;;;;;;15.52;12.18;;;4.30;99.90;;;;;;5036680;28;20466;-76
2020/12/25 11:08:48;;;;;;;16.05;12.60;;;4.20;99.90;;;;;;5053687;28;20032;-76
2020/12/25 11:11:28;;;;;;;16.55;12.43;;;4.30;99.90;;;;;;5065178;28;20024;-79
2020/12/25 11:13:54;;;;;;;20.10;11.65;;;4.10;99.90;;;;;;5072470;28;20027;-77
2020/12/25 11:16:27;;;;;;;14.73;9.95;;;4.20;99.90;;;;;;5073155;28;20036;-78
2020/12/25 11:18:55;;;;;;;14.88;9.80;;;4.00;99.90;;;;;;5057739;28;20021;-77
2020/12/25 11:21:25;;;;;;;12.23;9.75;;;4.00;99.90;;;;;;5054009;28;20078;-78
2020/12/25 11:23:52;;;;;;;11.35;9.15;;;4.00;99.90;;;;;;5054546;28;20138;-77
2020/12/25 11:26:29;;;;;;;10.75;8.55;;;4.00;99.90;;;;;;5054254;28;20020;-76
2020/12/25 11:28:57;;;;;;;11.77;8.43;;;4.00;99.90;;;;;;5053318;28;20033;-79
2020/12/25 11:31:24;;;;;;;11.23;8.65;;;4.10;99.90;;;;;;5035719;28;20032;-77
2020/12/25 11:33:50;;;;;;;11.73;8.85;;;4.20;99.90;;;;;;5055312;28;20035;-76
2020/12/25 11:36:21;;;;;;;11.45;8.98;;;4.30;99.90;;;;;;5036947;28;20028;-79
2020/12/25 11:38:47;;;;;;;10.93;8.25;;;4.60;99.90;;;;;;5061484;28;20028;-78
2020/12/25 11:41:14;;;;;;;9.10;7.60;;;5.10;99.90;;;;;;5075125;28;20103;-78
2020/12/25 11:43:40;;;;;;;9.48;6.68;;;5.50;99.90;;;;;;5075834;28;20012;-77
2020/12/25 11:46:07;;;;;;;9.80;5.63;;;5.80;99.90;;;;;;5076512;28;20023;-77
2020/12/25 11:48:34;;;;;;;7.25;5.80;;;5.70;99.90;;;;;;5071494;28;20024;-76
2020/12/25 11:51:00;;;;;;;7.65;6.28;;;5.70;99.90;;;;;;5070497;28;20032;-76
2020/12/25 11:53:26;;;;;;;8.93;6.32;;;5.70;99.90;;;;;;5071806;28;20032;-77
2020/12/25 11:55:52;;;;;;;8.20;6.80;;;5.70;99.90;;;;;;5071783;28;20554;-74
2020/12/25 11:58:18;;;;;;;7.10;5.80;;;5.90;99.90;;;;;;5071592;28;20028;-76
2020/12/25 12:00:44;;;;;;;9.45;6.10;;;5.70;99.90;;;;;;5070254;28;20074;-77
2020/12/25 12:03:10;;;;;;;9.52;5.38;;;5.60;99.90;;;;;;5072278;28;20379;-77
2020/12/25 12:05:39;;;;;;;7.25;5.22;;;5.70;99.90;;;;;;5053566;28;20048;-77
2020/12/25 12:08:04;;;;;;;6.30;5.10;;;6.10;99.90;;;;;;5053115;28;20028;-75
2020/12/25 12:10:30;;;;;;;7.82;5.15;;;6.20;99.90;;;;;;5057121;28;20032;-75
2020/12/25 12:12:56;;;;;;;7.63;6.10;;;6.20;99.90;;;;;;5054884;28;20077;-75
2020/12/25 12:15:21;;;;;;;9.88;5.35;;;6.00;99.90;;;;;;5054935;28;20024;-75
2020/12/25 12:17:47;;;;;;;6.90;4.80;;;5.90;99.90;;;;;;5054518;28;20031;-77
2020/12/25 12:20:13;;;;;;;6.30;5.10;;;5.60;99.90;;;;;;5071464;28;20096;-77
2020/12/25 12:22:38;;;;;;;5.82;4.55;;;5.80;99.90;;;;;;5052768;28;20016;-75
2020/12/25 12:25:07;;;;;;;7.47;4.75;;;5.90;99.90;;;;;;5072466;28;20092;-77
2020/12/25 12:27:33;;;;;;;5.32;4.65;;;6.00;99.90;;;;;;5072791;28;20037;-76
2020/12/25 12:30:01;;;;;;;6.63;4.93;;;6.10;99.90;;;;;;5071968;28;20108;-77
2020/12/25 12:32:27;;;;;;;4.50;4.03;;;6.80;99.90;;;;;;5070704;28;20097;-75
2020/12/25 12:34:53;;;;;;;6.22;4.00;;;7.00;99.90;;;;;;5070099;28;20571;-77
2020/12/25 12:37:18;;;;;;;4.78;4.28;;;7.20;99.90;;;;;;5070283;28;20106;-77
2020/12/25 12:39:44;;;;;;;4.32;3.83;;;8.00;99.90;;;;;;5070868;28;20104;-78
2020/12/25 12:42:09;;;;;;;4.15;3.85;;;8.50;99.90;;;;;;5053452;28;20024;-77
2020/12/25 12:44:35;;;;;;;4.30;3.78;;;8.70;99.90;;;;;;5071305;28;20029;-76
2020/12/25 12:47:01;;;;;;;5.28;4.30;;;8.40;99.90;;;;;;5071135;28;20100;-77
2020/12/25 12:49:27;;;;;;;3.55;3.25;;;9.50;99.90;;;;;;5073071;28;20096;-78
2020/12/25 12:51:52;;;;;;;5.03;3.58;;;10.60;99.90;;;;;;5072868;28;20088;-76
2020/12/25 12:54:18;;;;;;;5.68;3.38;;;11.00;99.90;;;;;;5063442;28;20039;-76